createdAt,value
2024-04-06T00:01:54.883Z,50.95
2024-04-06T00:04:22.821Z,50.77
2024-04-06T00:06:50.838Z,50.57
2024-04-06T00:09:18.434Z,50.45
2024-04-06T00:11:46.011Z,50.40
2024-04-06T00:14:15.120Z,50.48
2024-04-06T00:16:42.535Z,50.73
2024-04-06T00:19:09.955Z,50.89
2024-04-06T00:21:37.427Z,50.97
2024-04-06T00:24:06.095Z,51.10
2024-04-06T00:26:33.472Z,51.10
2024-04-06T00:29:01.241Z,51.07
2024-04-06T00:31:28.765Z,51.10
2024-04-06T00:33:58.055Z,51.12
2024-04-06T00:36:25.584Z,51.29
2024-04-06T00:38:52.996Z,51.62
2024-04-06T00:41:20.492Z,51.75
2024-04-06T00:43:47.905Z,51.70
2024-04-06T00:46:15.392Z,51.70
2024-04-06T00:48:42.838Z,51.67
2024-04-06T00:51:10.218Z,51.75
2024-04-06T00:53:37.934Z,51.73
2024-04-06T00:56:05.710Z,51.72
2024-04-06T00:58:33.107Z,51.65
2024-04-06T01:01:00.618Z,51.46
2024-04-06T01:03:28.037Z,51.58
2024-04-06T01:05:55.468Z,51.62
2024-04-06T01:08:23.006Z,51.76
2024-04-06T01:10:50.433Z,51.91
2024-04-06T01:13:17.874Z,52.05
2024-04-06T01:15:46.231Z,52.02
2024-04-06T01:18:13.685Z,51.98
2024-04-06T01:20:44.890Z,51.92
2024-04-06T01:23:13.437Z,51.88
2024-04-06T01:25:41.088Z,51.92
2024-04-06T01:28:08.513Z,52.10
2024-04-06T01:30:37.517Z,52.25
2024-04-06T01:33:05.067Z,52.29
2024-04-06T01:35:32.456Z,52.22
2024-04-06T01:37:59.884Z,52.13
2024-04-06T01:40:28.827Z,52.15
2024-04-06T01:42:56.789Z,52.17
2024-04-06T01:45:24.198Z,52.08
2024-04-06T01:47:51.604Z,52.09
2024-04-06T01:50:19.158Z,52.01
2024-04-06T01:52:46.554Z,51.87
2024-04-06T01:55:14.220Z,51.79
2024-04-06T01:57:41.721Z,51.85
2024-04-06T02:00:09.730Z,51.86
2024-04-06T02:02:40.301Z,51.82
2024-04-06T02:05:07.850Z,51.79
2024-04-06T02:07:35.287Z,51.85
2024-04-06T02:10:02.746Z,51.96
2024-04-06T02:12:30.277Z,52.09
2024-04-06T02:14:57.895Z,52.39
2024-04-06T02:17:25.934Z,52.63
2024-04-06T02:19:53.466Z,52.99
2024-04-06T02:22:20.882Z,53.34
2024-04-06T02:24:48.285Z,53.58
2024-04-06T02:27:15.802Z,53.75
2024-04-06T02:29:43.212Z,53.87
2024-04-06T02:32:10.602Z,53.97
2024-04-06T02:34:38.050Z,54.00
2024-04-06T02:37:05.575Z,54.08
2024-04-06T02:39:33.186Z,54.27
2024-04-06T02:42:00.577Z,54.52
2024-04-06T02:44:28.175Z,54.61
2024-04-06T02:46:55.711Z,54.67
2024-04-06T02:49:23.131Z,54.65
2024-04-06T02:51:50.527Z,54.67
2024-04-06T02:54:17.993Z,54.75
2024-04-06T02:56:45.489Z,54.82
2024-04-06T02:59:12.965Z,54.94
2024-04-06T03:01:40.429Z,55.09
2024-04-06T03:04:07.893Z,55.16
2024-04-06T03:06:35.340Z,55.09
2024-04-06T03:09:02.854Z,54.91
2024-04-06T03:11:30.624Z,54.87
2024-04-06T03:13:58.125Z,54.77
2024-04-06T03:16:25.677Z,54.61
2024-04-06T03:18:53.140Z,54.43
2024-04-06T03:21:22.181Z,54.29
2024-04-06T03:23:49.812Z,54.05
2024-04-06T03:26:17.348Z,53.72
2024-04-06T03:28:44.871Z,53.47
2024-04-06T03:31:12.446Z,53.45
2024-04-06T03:33:39.830Z,53.60
2024-04-06T03:36:07.353Z,53.79
2024-04-06T03:38:34.747Z,53.99
2024-04-06T03:41:02.217Z,53.51
2024-04-06T03:43:29.677Z,52.99
2024-04-06T03:45:57.030Z,52.98
2024-04-06T03:48:24.569Z,53.01
2024-04-06T03:50:52.038Z,52.22
2024-04-06T03:53:38.107Z,51.05
2024-04-06T03:56:06.241Z,49.75
2024-04-06T03:58:33.912Z,48.19
2024-04-06T04:02:47.205Z,44.50
2024-04-06T04:05:14.672Z,42.63
2024-04-06T04:07:42.218Z,41.01
2024-04-06T04:10:09.775Z,39.87
2024-04-06T04:12:37.279Z,38.82
2024-04-06T04:15:08.800Z,37.60
2024-04-06T04:17:36.336Z,36.32
2024-04-06T04:20:07.257Z,35.10
2024-04-06T04:22:34.868Z,34.16
2024-04-06T04:25:02.395Z,33.71
2024-04-06T04:27:31.641Z,33.02
2024-04-06T04:29:59.335Z,32.48
2024-04-06T04:32:27.005Z,31.58
2024-04-06T04:34:54.415Z,30.97
2024-04-06T04:37:21.853Z,30.17
2024-04-06T04:39:49.266Z,29.81
2024-04-06T04:42:16.773Z,29.64
2024-04-06T04:44:49.811Z,29.37
2024-04-06T04:47:26.115Z,29.25
2024-04-06T04:49:53.522Z,29.21
2024-04-06T04:52:21.034Z,29.01
2024-04-06T04:54:48.428Z,28.98
2024-04-06T04:57:15.859Z,28.98
2024-04-06T04:59:43.361Z,28.74
2024-04-06T05:02:10.875Z,28.76
2024-04-06T05:04:38.249Z,28.77
2024-04-06T05:07:05.680Z,28.67
2024-04-06T05:09:33.093Z,28.38
2024-04-06T05:12:00.601Z,27.98
2024-04-06T05:14:29.353Z,27.55
2024-04-06T05:16:56.759Z,27.08
2024-04-06T05:19:24.759Z,26.69
2024-04-06T05:21:52.246Z,26.31
2024-04-06T05:24:20.159Z,26.15
2024-04-06T05:26:47.831Z,25.94
2024-04-06T05:29:15.225Z,25.67
2024-04-06T05:31:42.622Z,25.40
2024-04-06T05:34:10.037Z,25.25
2024-04-06T05:36:37.460Z,25.28
2024-04-06T05:39:06.619Z,25.07
2024-04-06T05:41:34.026Z,24.87
2024-04-06T05:44:04.012Z,24.61
2024-04-06T05:46:33.034Z,24.44
2024-04-06T05:49:01.643Z,24.25
2024-04-06T05:51:29.263Z,24.13
2024-04-06T05:53:56.788Z,24.08
2024-04-06T05:56:24.299Z,24.15
2024-04-06T05:58:51.717Z,24.07
2024-04-06T06:01:19.264Z,24.05
2024-04-06T06:03:46.740Z,24.02
2024-04-06T06:06:15.097Z,24.19
2024-04-06T06:08:42.489Z,24.17
2024-04-06T06:11:09.917Z,24.22
2024-04-06T06:13:37.356Z,23.98
2024-04-06T06:16:05.084Z,24.09
2024-04-06T06:18:32.554Z,24.12
2024-04-06T06:21:04.592Z,24.03
2024-04-06T06:23:32.113Z,24.02
2024-04-06T06:25:59.714Z,24.28
2024-04-06T06:28:27.274Z,24.46
2024-04-06T06:30:54.812Z,24.39
2024-04-06T06:33:22.667Z,24.54
2024-04-06T06:38:26.893Z,24.88
2024-04-06T06:40:55.115Z,24.98
2024-04-06T06:43:22.626Z,24.95
2024-04-06T06:45:50.073Z,24.78
2024-04-06T06:48:17.447Z,24.79
2024-04-06T06:50:45.242Z,24.60
2024-04-06T06:53:12.607Z,24.45
2024-04-06T06:55:40.038Z,24.42
2024-04-06T06:58:07.577Z,24.04
2024-04-06T07:00:37.289Z,23.97
2024-04-06T07:03:05.383Z,23.95
2024-04-06T07:05:32.764Z,24.03
2024-04-06T07:08:00.204Z,23.99
2024-04-06T07:10:27.608Z,24.07
2024-04-06T07:12:55.115Z,23.96
2024-04-06T07:15:22.499Z,23.88
2024-04-06T07:17:50.082Z,23.87
2024-04-06T07:20:17.556Z,23.72
2024-04-06T07:22:45.006Z,23.50
2024-04-06T07:25:12.831Z,23.38
2024-04-06T07:27:40.478Z,23.24
2024-04-06T07:30:08.189Z,23.43
2024-04-06T07:32:35.781Z,23.52
2024-04-06T07:35:03.788Z,23.45
2024-04-06T07:37:31.564Z,23.34
2024-04-06T07:39:59.021Z,23.37
2024-04-06T07:42:26.638Z,23.51
2024-04-06T07:44:54.115Z,23.47
2024-04-06T07:47:21.591Z,23.37
2024-04-06T07:49:49.044Z,23.22
2024-04-06T07:52:16.439Z,23.46
2024-04-06T07:54:43.857Z,23.61
2024-04-06T07:57:11.323Z,23.88
2024-04-06T07:59:38.832Z,23.94
2024-04-06T08:02:06.428Z,23.93
2024-04-06T08:04:33.971Z,24.13
2024-04-06T08:07:03.697Z,24.45
2024-04-06T08:09:32.030Z,24.66
2024-04-06T08:11:59.685Z,24.94
2024-04-06T08:14:27.092Z,25.23
2024-04-06T08:16:54.602Z,25.35
2024-04-06T08:19:22.048Z,25.56
2024-04-06T08:21:49.558Z,25.85
2024-04-06T08:24:18.268Z,25.99
2024-04-06T08:26:46.412Z,26.18
2024-04-06T08:29:14.241Z,26.45
2024-04-06T08:31:41.790Z,26.35
2024-04-06T08:34:09.620Z,26.27
2024-04-06T08:36:37.328Z,26.19
2024-04-06T08:39:05.565Z,26.24
2024-04-06T08:41:33.007Z,26.40
2024-04-06T08:44:01.419Z,26.60
2024-04-06T08:46:28.946Z,26.60
2024-04-06T08:48:56.420Z,26.56
2024-04-06T08:51:24.926Z,26.79
2024-04-06T08:53:52.357Z,26.83
2024-04-06T08:56:19.876Z,26.69
2024-04-06T08:58:48.164Z,26.54
2024-04-06T09:01:15.853Z,26.39
2024-04-06T09:03:43.386Z,26.48
2024-04-06T09:06:19.522Z,26.84
2024-04-06T09:08:47.563Z,27.22
2024-04-06T09:11:15.079Z,27.55
2024-04-06T09:13:43.504Z,27.59
2024-04-06T09:16:11.295Z,27.56
2024-04-06T09:18:39.958Z,27.65
2024-04-06T09:21:07.512Z,27.74
2024-04-06T09:23:35.512Z,27.53
2024-04-06T09:26:03.813Z,27.28
2024-04-06T09:28:34.138Z,27.25
2024-04-06T09:31:01.701Z,27.34
2024-04-06T09:33:29.138Z,27.37
2024-04-06T09:35:56.590Z,27.62
2024-04-06T09:38:26.022Z,27.98
2024-04-06T09:40:53.728Z,28.33
2024-04-06T09:43:21.233Z,28.58
2024-04-06T09:45:48.745Z,28.58
2024-04-06T09:48:16.321Z,28.39
2024-04-06T09:50:44.187Z,28.20
2024-04-06T09:53:13.705Z,28.09
2024-04-06T09:55:41.783Z,27.93
2024-04-06T09:58:10.005Z,27.96
2024-04-06T10:00:37.646Z,27.87
2024-04-06T10:03:06.068Z,27.68
2024-04-06T10:05:43.930Z,27.53
2024-04-06T10:08:24.181Z,27.47
2024-04-06T10:10:53.354Z,27.44
2024-04-06T10:13:21.692Z,27.31
2024-04-06T10:15:49.170Z,27.06
2024-04-06T10:18:17.036Z,27.05
2024-04-06T10:20:44.593Z,27.01
2024-04-06T10:23:14.051Z,27.01
2024-04-06T10:25:41.585Z,27.02
2024-04-06T10:28:10.142Z,26.81
2024-04-06T10:30:38.983Z,26.90
2024-04-06T10:33:07.579Z,26.99
2024-04-06T10:35:35.222Z,26.95
2024-04-06T10:38:02.835Z,26.92
2024-04-06T10:40:35.301Z,26.86
2024-04-06T10:43:06.141Z,26.79
2024-04-06T10:45:34.719Z,26.74
2024-04-06T10:48:03.457Z,26.55
2024-04-06T10:50:30.913Z,26.74
2024-04-06T10:52:59.669Z,26.09
2024-04-06T10:55:28.791Z,26.61
2024-04-06T10:57:59.417Z,27.03
2024-04-06T11:00:27.811Z,27.10
2024-04-06T11:03:00.702Z,26.68
2024-04-06T11:05:28.293Z,26.99
2024-04-06T11:07:55.871Z,27.43
2024-04-06T11:10:23.638Z,27.38
2024-04-06T11:12:51.223Z,27.21
2024-04-06T11:15:18.755Z,26.85
2024-04-06T11:17:46.414Z,26.77
2024-04-06T11:20:14.035Z,27.28
2024-04-06T11:22:41.941Z,28.09
2024-04-06T11:25:16.141Z,28.52
2024-04-06T11:27:54.502Z,28.71
2024-04-06T11:30:22.021Z,28.47
2024-04-06T11:32:51.306Z,28.11
2024-04-06T11:35:19.278Z,27.97
2024-04-06T11:37:46.819Z,27.89
2024-04-06T11:40:15.361Z,28.08
2024-04-06T11:42:42.854Z,28.22
2024-04-06T11:45:10.313Z,28.50
2024-04-06T11:47:37.931Z,28.67
2024-04-06T11:50:05.951Z,28.67
2024-04-06T11:52:33.499Z,28.79
2024-04-06T11:55:01.025Z,28.91
2024-04-06T11:57:28.553Z,28.87
2024-04-06T11:59:55.959Z,28.85
2024-04-06T12:02:23.598Z,28.93
2024-04-06T12:04:51.066Z,29.35
2024-04-06T12:07:18.555Z,30.18
2024-04-06T12:09:46.125Z,30.73
2024-04-06T12:12:14.868Z,31.03
2024-04-06T12:14:42.393Z,31.08
2024-04-06T12:17:16.061Z,31.49
2024-04-06T12:19:43.636Z,32.03
2024-04-06T12:22:11.268Z,32.50
2024-04-06T12:24:41.462Z,32.81
2024-04-06T12:27:09.236Z,33.04
2024-04-06T12:29:36.704Z,33.20
2024-04-06T12:32:04.951Z,33.42
2024-04-06T12:34:32.512Z,33.43
2024-04-06T12:37:03.989Z,33.39
2024-04-06T12:39:31.540Z,33.20
2024-04-06T12:41:58.981Z,33.21
2024-04-06T12:44:26.614Z,33.38
2024-04-06T12:46:54.144Z,33.94
2024-04-06T12:49:21.685Z,34.34
2024-04-06T12:51:49.226Z,34.58
2024-04-06T12:54:16.798Z,34.89
2024-04-06T12:57:02.973Z,35.23
2024-04-06T12:59:30.461Z,35.39
2024-04-06T13:01:58.058Z,35.71
2024-04-06T13:04:25.583Z,36.04
2024-04-06T13:06:53.100Z,36.34
2024-04-06T13:09:22.103Z,36.52
2024-04-06T13:11:49.563Z,36.51
2024-04-06T13:14:17.017Z,36.38
2024-04-06T13:16:44.516Z,36.31
2024-04-06T13:19:12.049Z,36.24
2024-04-06T13:21:42.802Z,36.36
2024-04-06T13:24:13.210Z,36.52
2024-04-06T13:26:40.852Z,36.93
2024-04-06T13:29:10.442Z,37.05
2024-04-06T13:31:37.872Z,37.15
2024-04-06T13:34:07.648Z,37.26
2024-04-06T13:36:35.094Z,37.23
2024-04-06T13:39:07.501Z,37.26
2024-04-06T13:41:35.041Z,37.36
2024-04-06T13:44:03.148Z,37.46
2024-04-06T13:46:31.373Z,37.72
2024-04-06T13:48:58.861Z,37.91
2024-04-06T13:51:26.719Z,38.19
2024-04-06T13:53:54.221Z,38.68
2024-04-06T13:56:21.681Z,39.05
2024-04-06T13:58:50.667Z,39.27
2024-04-06T14:01:18.217Z,39.53
2024-04-06T14:03:45.717Z,39.76
2024-04-06T14:06:13.612Z,39.82
2024-04-06T14:08:41.685Z,39.82
2024-04-06T14:11:11.140Z,39.92
2024-04-06T14:13:40.988Z,39.97
2024-04-06T14:16:08.830Z,39.97
2024-04-06T14:18:36.528Z,40.16
2024-04-06T14:21:04.316Z,40.39
2024-04-06T14:23:31.773Z,40.76
2024-04-06T14:26:00.111Z,40.90
2024-04-06T14:28:28.511Z,41.22
2024-04-06T14:30:56.369Z,41.27
2024-04-06T14:33:23.846Z,41.35
2024-04-06T14:35:51.796Z,41.36
2024-04-06T14:38:19.333Z,41.32
2024-04-06T14:40:46.851Z,41.26
2024-04-06T14:43:16.941Z,41.29
2024-04-06T14:45:46.004Z,41.17
2024-04-06T14:48:13.671Z,41.35
2024-04-06T14:50:41.169Z,41.65
2024-04-06T14:53:09.043Z,41.98
2024-04-06T14:55:36.522Z,42.40
2024-04-06T14:58:04.177Z,42.44
2024-04-06T15:00:31.772Z,42.51
2024-04-06T15:02:59.392Z,42.59
2024-04-06T15:05:26.842Z,42.70
2024-04-06T15:07:54.698Z,42.60
2024-04-06T15:10:22.238Z,42.74
2024-04-06T15:12:49.912Z,42.80
2024-04-06T15:15:17.446Z,43.11
2024-04-06T15:17:44.891Z,43.22
2024-04-06T15:20:12.502Z,43.44
2024-04-06T15:22:40.695Z,43.63
2024-04-06T15:25:11.028Z,43.72
2024-04-06T15:27:39.783Z,43.95
2024-04-06T15:30:11.042Z,44.19
2024-04-06T15:32:40.314Z,44.59
2024-04-06T15:35:09.377Z,44.95
2024-04-06T15:37:36.895Z,45.44
2024-04-06T15:40:07.715Z,45.71
2024-04-06T15:42:35.225Z,45.74
2024-04-06T15:45:02.735Z,46.12
2024-04-06T15:47:30.357Z,46.43
2024-04-06T15:49:57.830Z,46.54
2024-04-06T15:52:25.365Z,46.69
2024-04-06T15:54:52.879Z,46.79
2024-04-06T15:57:21.228Z,46.84
2024-04-06T15:59:48.769Z,47.01
2024-04-06T16:02:16.397Z,46.93
2024-04-06T16:04:43.968Z,46.81
2024-04-06T16:07:11.754Z,46.58
2024-04-06T16:09:39.275Z,46.11
2024-04-06T16:12:07.114Z,46.10
2024-04-06T16:14:35.445Z,46.13
2024-04-06T16:17:04.094Z,46.29
2024-04-06T16:19:35.445Z,46.45
2024-04-06T16:22:04.512Z,46.71
2024-04-06T16:24:33.881Z,46.94
2024-04-06T16:27:01.356Z,47.25
2024-04-06T16:29:28.944Z,47.49
2024-04-06T16:31:56.561Z,47.79
2024-04-06T16:34:24.498Z,48.11
2024-04-06T16:36:52.207Z,48.38
2024-04-06T16:39:19.798Z,48.62
2024-04-06T16:41:47.398Z,48.81
2024-04-06T16:44:16.819Z,48.96
2024-04-06T16:46:44.355Z,49.10
2024-04-06T16:49:11.792Z,49.14
2024-04-06T16:51:39.416Z,49.30
2024-04-06T16:54:07.023Z,49.39
2024-04-06T16:56:34.498Z,49.43
2024-04-06T16:59:01.989Z,49.35
2024-04-06T17:01:29.548Z,49.27
2024-04-06T17:03:57.080Z,49.27
2024-04-06T17:06:24.586Z,49.20
2024-04-06T17:08:52.336Z,49.11
2024-04-06T17:11:20.128Z,49.05
2024-04-06T17:13:47.587Z,49.00
2024-04-06T17:16:15.279Z,48.79
2024-04-06T17:18:42.830Z,48.69
2024-04-06T17:21:10.569Z,48.42
2024-04-06T17:23:38.355Z,48.18
2024-04-06T17:26:05.938Z,48.05
2024-04-06T17:28:33.418Z,48.05
2024-04-06T17:31:01.013Z,48.08
2024-04-06T17:33:28.695Z,48.08
2024-04-06T17:35:56.206Z,48.01
2024-04-06T17:38:24.987Z,48.10
2024-04-06T17:40:52.597Z,47.99
2024-04-06T17:43:23.051Z,48.07
2024-04-06T17:45:50.536Z,48.20
2024-04-06T17:48:18.058Z,48.58
2024-04-06T17:50:45.521Z,49.24
2024-04-06T17:53:12.965Z,49.83
2024-04-06T17:55:41.094Z,49.79
2024-04-06T17:58:13.989Z,50.02
2024-04-06T18:00:50.618Z,50.22
2024-04-06T18:03:19.757Z,50.32
2024-04-06T18:05:47.814Z,50.48
2024-04-06T18:08:15.377Z,50.52
2024-04-06T18:10:42.851Z,50.60
2024-04-06T18:13:10.575Z,50.96
2024-04-06T18:15:38.177Z,51.21
2024-04-06T18:18:05.774Z,51.23
2024-04-06T18:20:33.404Z,51.62
2024-04-06T18:23:00.894Z,51.93
2024-04-06T18:25:28.422Z,52.16
2024-04-06T18:27:55.866Z,52.42
2024-04-06T18:30:23.320Z,52.96
2024-04-06T18:32:50.926Z,53.00
2024-04-06T18:35:18.537Z,52.62
2024-04-06T18:37:46.100Z,52.30
2024-04-06T18:40:13.963Z,52.23
2024-04-06T18:42:42.961Z,51.92
2024-04-06T18:45:13.233Z,51.76
2024-04-06T18:47:42.220Z,51.55
2024-04-06T18:50:10.029Z,51.62
2024-04-06T18:52:37.546Z,51.50
2024-04-06T18:55:05.567Z,51.59
2024-04-06T18:57:33.027Z,51.49
2024-04-06T19:00:01.458Z,51.40
2024-04-06T19:02:28.952Z,51.40
2024-04-06T19:04:56.527Z,51.59
2024-04-06T19:07:24.586Z,51.69
2024-04-06T19:09:52.049Z,51.78
2024-04-06T19:12:19.910Z,51.80
2024-04-06T19:14:47.374Z,51.84
2024-04-06T19:17:14.902Z,51.77
2024-04-06T19:19:43.099Z,51.71
2024-04-06T19:22:10.645Z,51.71
2024-04-06T19:24:38.267Z,51.75
2024-04-06T19:27:05.759Z,51.91
2024-04-06T19:29:33.197Z,51.78
2024-04-06T19:32:00.692Z,51.84
2024-04-06T19:34:28.208Z,51.93
2024-04-06T19:36:55.721Z,52.18
2024-04-06T19:39:23.315Z,52.40
2024-04-06T19:41:50.812Z,52.51
2024-04-06T19:44:18.447Z,52.57
2024-04-06T19:46:49.575Z,52.91
2024-04-06T19:49:17.321Z,53.26
2024-04-06T19:51:44.902Z,53.64
2024-04-06T19:54:12.403Z,54.36
2024-04-06T19:56:39.925Z,54.94
2024-04-06T19:59:07.370Z,55.43
2024-04-06T20:01:34.922Z,55.49
2024-04-06T20:04:02.662Z,55.77
2024-04-06T20:06:30.892Z,55.95
2024-04-06T20:09:17.019Z,56.27
2024-04-06T20:11:44.585Z,56.43
2024-04-06T20:14:12.194Z,56.90
2024-04-06T20:16:39.757Z,57.18
2024-04-06T20:19:07.711Z,57.41
2024-04-06T20:21:35.429Z,57.94
2024-04-06T20:24:21.699Z,58.94
2024-04-06T20:26:49.396Z,59.45
2024-04-06T20:29:17.012Z,59.95
2024-04-06T20:31:44.581Z,60.44
2024-04-06T20:34:12.292Z,60.95
2024-04-06T20:36:40.188Z,61.42
2024-04-06T20:39:10.609Z,62.10
2024-04-06T20:41:38.095Z,63.06
2024-04-06T20:44:05.657Z,64.10
2024-04-06T20:46:33.237Z,65.58
2024-04-06T20:49:00.785Z,66.69
2024-04-06T20:51:28.269Z,68.12
2024-04-06T20:53:55.696Z,70.00
2024-04-06T20:56:23.455Z,72.05
2024-04-06T20:58:50.972Z,72.95
2024-04-06T21:01:18.477Z,73.68
2024-04-06T21:03:46.024Z,74.08
2024-04-06T21:06:13.548Z,74.47
2024-04-06T21:08:44.802Z,74.85
2024-04-06T21:11:12.336Z,74.97
2024-04-06T21:13:39.881Z,75.08
2024-04-06T21:16:07.339Z,75.12
2024-04-06T21:18:35.552Z,75.53
2024-04-06T21:21:03.131Z,75.65
2024-04-06T21:23:30.577Z,75.90
2024-04-06T21:26:01.609Z,76.41
2024-04-06T21:28:29.755Z,77.12
2024-04-06T21:30:58.034Z,77.52
2024-04-06T21:33:25.681Z,77.72
2024-04-06T21:35:53.235Z,77.69
2024-04-06T21:38:21.024Z,77.83
2024-04-06T21:40:48.522Z,78.31
2024-04-06T21:43:16.009Z,78.70
2024-04-06T21:45:43.401Z,79.03
2024-04-06T21:48:10.884Z,79.01
2024-04-06T21:50:38.291Z,79.34
2024-04-06T21:53:05.752Z,79.55
2024-04-06T21:55:33.570Z,79.67
2024-04-06T21:58:00.982Z,79.61
2024-04-06T22:00:30.155Z,79.24
2024-04-06T22:02:57.578Z,79.09
2024-04-06T22:05:26.629Z,79.21
2024-04-06T22:07:54.107Z,79.04
2024-04-06T22:10:21.545Z,78.79
2024-04-06T22:12:48.987Z,78.81
2024-04-06T22:15:16.486Z,78.68
2024-04-06T22:17:43.978Z,78.68
2024-04-06T22:20:11.938Z,78.53
2024-04-06T22:22:39.427Z,78.32
2024-04-06T22:25:07.302Z,78.15
2024-04-06T22:27:34.765Z,78.02
2024-04-06T22:30:06.707Z,77.68
2024-04-06T22:32:34.240Z,77.08
2024-04-06T22:35:01.741Z,76.67
2024-04-06T22:37:31.960Z,76.01
2024-04-06T22:39:59.337Z,75.26
2024-04-06T22:42:27.621Z,74.94
2024-04-06T22:44:55.070Z,74.73
2024-04-06T22:47:22.515Z,74.47
2024-04-06T22:49:51.996Z,74.31
2024-04-06T22:52:19.431Z,74.39
2024-04-06T22:54:46.880Z,74.41
2024-04-06T22:57:14.369Z,74.47
2024-04-06T22:59:42.405Z,74.87
2024-04-06T23:02:09.830Z,74.92
2024-04-06T23:04:37.341Z,75.13
2024-04-06T23:07:04.998Z,75.55
2024-04-06T23:09:32.531Z,76.01
2024-04-06T23:11:59.972Z,76.11
2024-04-06T23:14:27.407Z,75.89
2024-04-06T23:16:55.166Z,75.77
2024-04-06T23:19:22.678Z,75.79
2024-04-06T23:21:50.163Z,77.11
2024-04-06T23:24:17.542Z,77.53
2024-04-06T23:26:45.331Z,77.81
2024-04-06T23:29:12.911Z,77.53
2024-04-06T23:31:41.081Z,77.63
2024-04-06T23:34:08.479Z,78.12
2024-04-06T23:36:36.465Z,78.42
2024-04-06T23:39:06.431Z,78.31
2024-04-06T23:41:33.846Z,78.27
2024-04-06T23:44:01.556Z,78.99
2024-04-06T23:46:29.192Z,79.53
2024-04-06T23:48:56.614Z,80.40
2024-04-06T23:51:24.027Z,81.79
2024-04-06T23:53:51.491Z,82.09
2024-04-06T23:56:18.943Z,83.83
2024-04-06T23:58:46.440Z,84.42
